메인 페이지
METAR-TAF:

METAR-TAF

공항 :

릴롱궤, 말라위

위도: 13-47S, 경도: 033-46E, 고도: 1229m

현재 날씨관측

예보는 1 시간 9분 전, 09:00시(UTC)에 발표되었습니다.
5kt
온도 25°C
습도 69%
기압 1018 hPa
시정 10km 이상
고도 2200ft 상공 구름 조금, 적란운.
고도 2400ft 상공 구름 많음
고도 8000ft 상공 구름 많음

METAR: FWKI 120900Z 01005KT 9999 FEW022CB BKN024 BKN080 25/19 Q1018 NOSIG

시각: 12:09 (10:09 UTC)

예보

예보는 6 시간 9분 전, 04:00시(UTC)에 발표되었습니다.
예보 대상 시간: 12일 06시부터 13일 12시까지 (UTC)
3kt
시정 10km 이상
고도 1500ft 상공 구름 보통
고도 7000ft 상공 구름 많음
전환 중
12일 06시부터 12일 08시까지 (UTC)
북북동8kt
고도 2000ft 상공 구름 보통
고도 7000ft 상공 구름 많음
일시적
12일 08시부터 12일 12시까지 (UTC)
여러 방향의 바람 5kt
시정: 7000m
고도 2000ft 상공 구름 많음
고도 2500ft 상공 구름 조금, 적란운.
고도 7000ft 상공 구름 많음
뇌우, 비
전환 중
12일 17시부터 12일 19시까지 (UTC)
여러 방향의 바람 2kt
고도 2500ft 상공 구름 조금, 적란운.
고도 8000ft 상공 구름 보통
전환 중
13일 06시부터 13일 08시까지 (UTC)
고도 1800ft 상공 구름 보통
고도 8000ft 상공 구름 많음
일시적
13일 07시부터 13일 11시까지 (UTC)
여러 방향의 바람 5kt
시정: 7000m

TAF: FWKI 120400Z 1206/1312 10003KT 9999 SCT015 BKN070 BECMG 1206/1208 02008KT SCT020 BKN070 TEMPO 1208/1212 VRB05KT 7000 TSRA BKN020 FEW025CB BKN070 BECMG 1217/1219 VRB02KT FEW025CB SCT080 BECMG 1306/1308 SCT018 BKN080 TEMPO 1307/1311 VRB05KT 7000 RA

4,000개 이상의 공항 관측 자료 및 예보 (METAR 및 TAF 보고).

지도상에서 검색 가능한 기상관측소가 노란 점과 빨간 점으로 표시되어 있습니다.

기상관측소 명을 보려면 표시 위로 마우스를 이동하세요.

날씨 관측과 예보를 보려면 클릭하세요.

지도 변경 : 확대하려면 엑스 표시가 있는 녹색 버튼, 축소하려면 빼기 표시가 있는 녹색 버튼, 다음 페이지의 지도를 보려면 녹색 화살표를 클릭하세요.


METAR-TAF: